sensor_id;sensor_type;location;lat;lon;timestamp;P1;durP1;ratioP1;P2;durP2;ratioP2
51270;SDS011;37744;50.960;4.136;2023-02-15T00:01:27;76.93;;;34.47;;
51270;SDS011;37744;50.960;4.136;2023-02-15T00:03:52;62.05;;;30.67;;
51270;SDS011;37744;50.960;4.136;2023-02-15T00:06:18;62.10;;;30.65;;
51270;SDS011;37744;50.960;4.136;2023-02-15T00:08:43;67.68;;;30.52;;
51270;SDS011;37744;50.960;4.136;2023-02-15T00:11:09;78.25;;;33.22;;
51270;SDS011;37744;50.960;4.136;2023-02-15T00:13:35;75.28;;;33.60;;
51270;SDS011;37744;50.960;4.136;2023-02-15T00:16:05;69.82;;;32.15;;
51270;SDS011;37744;50.960;4.136;2023-02-15T00:18:31;69.57;;;32.22;;
51270;SDS011;37744;50.960;4.136;2023-02-15T00:20:56;73.15;;;31.45;;
51270;SDS011;37744;50.960;4.136;2023-02-15T00:23:22;71.72;;;33.33;;
51270;SDS011;37744;50.960;4.136;2023-02-15T00:25:47;77.72;;;34.15;;
51270;SDS011;37744;50.960;4.136;2023-02-15T00:28:13;70.47;;;32.13;;
51270;SDS011;37744;50.960;4.136;2023-02-15T00:30:38;62.67;;;29.77;;
51270;SDS011;37744;50.960;4.136;2023-02-15T00:33:03;64.90;;;30.45;;
51270;SDS011;37744;50.960;4.136;2023-02-15T00:35:28;60.20;;;29.33;;
51270;SDS011;37744;50.960;4.136;2023-02-15T00:37:55;71.63;;;32.95;;
51270;SDS011;37744;50.960;4.136;2023-02-15T00:40:20;73.15;;;34.33;;
51270;SDS011;37744;50.960;4.136;2023-02-15T00:42:46;71.35;;;32.83;;
51270;SDS011;37744;50.960;4.136;2023-02-15T00:45:11;72.53;;;33.60;;
51270;SDS011;37744;50.960;4.136;2023-02-15T00:47:36;75.65;;;33.90;;
51270;SDS011;37744;50.960;4.136;2023-02-15T00:50:01;75.00;;;34.95;;
51270;SDS011;37744;50.960;4.136;2023-02-15T00:52:28;79.35;;;35.10;;
51270;SDS011;37744;50.960;4.136;2023-02-15T00:54:53;79.00;;;36.03;;
51270;SDS011;37744;50.960;4.136;2023-02-15T00:57:18;79.13;;;35.22;;
51270;SDS011;37744;50.960;4.136;2023-02-15T00:59:43;76.00;;;35.90;;
51270;SDS011;37744;50.960;4.136;2023-02-15T01:02:09;72.20;;;32.95;;
51270;SDS011;37744;50.960;4.136;2023-02-15T01:04:34;81.40;;;38.67;;
51270;SDS011;37744;50.960;4.136;2023-02-15T01:06:59;82.63;;;37.35;;
51270;SDS011;37744;50.960;4.136;2023-02-15T01:09:26;80.75;;;36.70;;
51270;SDS011;37744;50.960;4.136;2023-02-15T01:11:52;81.05;;;37.20;;
51270;SDS011;37744;50.960;4.136;2023-02-15T01:14:17;86.47;;;39.00;;
51270;SDS011;37744;50.960;4.136;2023-02-15T01:16:44;84.80;;;37.45;;
51270;SDS011;37744;50.960;4.136;2023-02-15T01:19:09;79.15;;;36.95;;
51270;SDS011;37744;50.960;4.136;2023-02-15T01:21:34;87.13;;;37.90;;
51270;SDS011;37744;50.960;4.136;2023-02-15T01:24:00;91.13;;;39.45;;
51270;SDS011;37744;50.960;4.136;2023-02-15T01:26:26;73.05;;;33.53;;
51270;SDS011;37744;50.960;4.136;2023-02-15T01:28:51;64.40;;;31.55;;
51270;SDS011;37744;50.960;4.136;2023-02-15T01:31:17;76.88;;;35.88;;
51270;SDS011;37744;50.960;4.136;2023-02-15T01:33:42;78.75;;;36.15;;
51270;SDS011;37744;50.960;4.136;2023-02-15T01:36:08;72.97;;;36.13;;
51270;SDS011;37744;50.960;4.136;2023-02-15T01:38:34;89.18;;;38.92;;
51270;SDS011;37744;50.960;4.136;2023-02-15T01:40:59;82.85;;;38.38;;
51270;SDS011;37744;50.960;4.136;2023-02-15T01:43:50;91.90;;;40.45;;
51270;SDS011;37744;50.960;4.136;2023-02-15T01:46:16;91.28;;;39.38;;
51270;SDS011;37744;50.960;4.136;2023-02-15T01:48:50;94.30;;;41.28;;
51270;SDS011;37744;50.960;4.136;2023-02-15T01:51:17;87.80;;;40.67;;
51270;SDS011;37744;50.960;4.136;2023-02-15T01:53:49;87.13;;;39.53;;
51270;SDS011;37744;50.960;4.136;2023-02-15T01:56:22;92.75;;;40.17;;
51270;SDS011;37744;50.960;4.136;2023-02-15T01:58:48;70.20;;;34.53;;
51270;SDS011;37744;50.960;4.136;2023-02-15T02:01:14;83.20;;;39.28;;
51270;SDS011;37744;50.960;4.136;2023-02-15T02:04:23;76.78;;;35.92;;
51270;SDS011;37744;50.960;4.136;2023-02-15T02:06:28;72.00;;;33.05;;
51270;SDS011;37744;50.960;4.136;2023-02-15T02:08:54;82.97;;;37.85;;
51270;SDS011;37744;50.960;4.136;2023-02-15T02:11:20;94.57;;;38.90;;
51270;SDS011;37744;50.960;4.136;2023-02-15T02:13:45;90.43;;;39.08;;
51270;SDS011;37744;50.960;4.136;2023-02-15T02:21:34;73.35;;;34.90;;
51270;SDS011;37744;50.960;4.136;2023-02-15T02:24:16;66.78;;;33.33;;
51270;SDS011;37744;50.960;4.136;2023-02-15T02:36:55;93.30;;;42.67;;
51270;SDS011;37744;50.960;4.136;2023-02-15T02:42:09;90.10;;;39.53;;
51270;SDS011;37744;50.960;4.136;2023-02-15T02:49:43;84.80;;;38.13;;
51270;SDS011;37744;50.960;4.136;2023-02-15T02:54:53;93.78;;;39.60;;
51270;SDS011;37744;50.960;4.136;2023-02-15T02:57:18;95.10;;;38.95;;
51270;SDS011;37744;50.960;4.136;2023-02-15T02:59:45;83.80;;;38.00;;
51270;SDS011;37744;50.960;4.136;2023-02-15T03:02:16;90.03;;;38.17;;
51270;SDS011;37744;50.960;4.136;2023-02-15T03:04:47;91.30;;;39.00;;
51270;SDS011;37744;50.960;4.136;2023-02-15T03:07:14;78.65;;;35.25;;
51270;SDS011;37744;50.960;4.136;2023-02-15T03:09:47;87.00;;;38.28;;
51270;SDS011;37744;50.960;4.136;2023-02-15T03:12:16;93.32;;;40.80;;
51270;SDS011;37744;50.960;4.136;2023-02-15T03:14:43;91.93;;;39.50;;
51270;SDS011;37744;50.960;4.136;2023-02-15T03:17:09;87.68;;;37.88;;
51270;SDS011;37744;50.960;4.136;2023-02-15T03:19:36;78.75;;;36.78;;
51270;SDS011;37744;50.960;4.136;2023-02-15T03:22:36;82.85;;;37.33;;
51270;SDS011;37744;50.960;4.136;2023-02-15T03:27:33;80.97;;;36.17;;
51270;SDS011;37744;50.960;4.136;2023-02-15T03:29:59;88.90;;;37.92;;
51270;SDS011;37744;50.960;4.136;2023-02-15T03:32:27;80.88;;;35.70;;
51270;SDS011;37744;50.960;4.136;2023-02-15T03:34:53;76.07;;;34.03;;
51270;SDS011;37744;50.960;4.136;2023-02-15T03:39:46;77.68;;;33.15;;
51270;SDS011;37744;50.960;4.136;2023-02-15T03:42:17;80.25;;;35.22;;
51270;SDS011;37744;50.960;4.136;2023-02-15T03:45:18;74.90;;;32.47;;
51270;SDS011;37744;50.960;4.136;2023-02-15T03:47:36;78.78;;;33.13;;
51270;SDS011;37744;50.960;4.136;2023-02-15T03:50:04;78.38;;;32.80;;
51270;SDS011;37744;50.960;4.136;2023-02-15T03:52:51;79.88;;;33.28;;
51270;SDS011;37744;50.960;4.136;2023-02-15T03:55:16;76.68;;;32.67;;
51270;SDS011;37744;50.960;4.136;2023-02-15T03:57:42;71.70;;;31.83;;
51270;SDS011;37744;50.960;4.136;2023-02-15T04:00:26;82.82;;;34.50;;
51270;SDS011;37744;50.960;4.136;2023-02-15T04:05:42;72.72;;;32.55;;
51270;SDS011;37744;50.960;4.136;2023-02-15T04:08:08;75.78;;;33.67;;
51270;SDS011;37744;50.960;4.136;2023-02-15T04:10:34;81.18;;;32.05;;
51270;SDS011;37744;50.960;4.136;2023-02-15T04:13:38;76.35;;;31.50;;
51270;SDS011;37744;50.960;4.136;2023-02-15T04:16:03;64.30;;;28.88;;
51270;SDS011;37744;50.960;4.136;2023-02-15T04:18:35;75.57;;;33.70;;
51270;SDS011;37744;50.960;4.136;2023-02-15T04:21:21;84.63;;;36.47;;
51270;SDS011;37744;50.960;4.136;2023-02-15T04:24:05;79.97;;;34.88;;
51270;SDS011;37744;50.960;4.136;2023-02-15T04:26:49;79.00;;;34.25;;
51270;SDS011;37744;50.960;4.136;2023-02-15T04:29:17;86.47;;;38.58;;
51270;SDS011;37744;50.960;4.136;2023-02-15T04:31:43;65.65;;;30.88;;
51270;SDS011;37744;50.960;4.136;2023-02-15T04:34:08;83.38;;;35.58;;
51270;SDS011;37744;50.960;4.136;2023-02-15T04:36:34;78.60;;;34.65;;
51270;SDS011;37744;50.960;4.136;2023-02-15T04:39:00;86.72;;;34.83;;
51270;SDS011;37744;50.960;4.136;2023-02-15T04:41:25;78.35;;;34.03;;
51270;SDS011;37744;50.960;4.136;2023-02-15T04:43:50;76.10;;;34.33;;
51270;SDS011;37744;50.960;4.136;2023-02-15T04:46:16;79.13;;;34.90;;
51270;SDS011;37744;50.960;4.136;2023-02-15T04:48:41;75.95;;;33.38;;
51270;SDS011;37744;50.960;4.136;2023-02-15T04:51:06;78.88;;;33.53;;
51270;SDS011;37744;50.960;4.136;2023-02-15T04:53:32;84.25;;;34.05;;
51270;SDS011;37744;50.960;4.136;2023-02-15T04:55:58;87.32;;;35.50;;
51270;SDS011;37744;50.960;4.136;2023-02-15T04:58:23;83.80;;;36.15;;
51270;SDS011;37744;50.960;4.136;2023-02-15T05:00:48;67.82;;;33.10;;
51270;SDS011;37744;50.960;4.136;2023-02-15T05:03:13;75.90;;;34.55;;
51270;SDS011;37744;50.960;4.136;2023-02-15T05:05:39;71.70;;;33.22;;
51270;SDS011;37744;50.960;4.136;2023-02-15T05:08:05;77.75;;;33.15;;
51270;SDS011;37744;50.960;4.136;2023-02-15T05:10:30;83.00;;;34.35;;
51270;SDS011;37744;50.960;4.136;2023-02-15T05:12:56;78.57;;;34.28;;
51270;SDS011;37744;50.960;4.136;2023-02-15T05:15:21;78.00;;;34.55;;
51270;SDS011;37744;50.960;4.136;2023-02-15T05:17:46;78.18;;;35.05;;
51270;SDS011;37744;50.960;4.136;2023-02-15T05:20:11;79.25;;;34.42;;
51270;SDS011;37744;50.960;4.136;2023-02-15T05:22:37;76.07;;;35.20;;
51270;SDS011;37744;50.960;4.136;2023-02-15T05:25:02;86.10;;;35.67;;
51270;SDS011;37744;50.960;4.136;2023-02-15T05:27:46;76.07;;;34.65;;
51270;SDS011;37744;50.960;4.136;2023-02-15T05:30:30;82.65;;;35.83;;
51270;SDS011;37744;50.960;4.136;2023-02-15T05:32:55;77.20;;;34.85;;
51270;SDS011;37744;50.960;4.136;2023-02-15T05:35:20;78.78;;;35.53;;
51270;SDS011;37744;50.960;4.136;2023-02-15T05:37:46;77.43;;;33.50;;
51270;SDS011;37744;50.960;4.136;2023-02-15T05:40:11;74.63;;;33.85;;
51270;SDS011;37744;50.960;4.136;2023-02-15T05:42:36;76.97;;;33.45;;
51270;SDS011;37744;50.960;4.136;2023-02-15T05:45:02;70.43;;;32.50;;
51270;SDS011;37744;50.960;4.136;2023-02-15T05:47:28;73.97;;;34.58;;
51270;SDS011;37744;50.960;4.136;2023-02-15T05:49:54;74.05;;;33.92;;
51270;SDS011;37744;50.960;4.136;2023-02-15T05:52:19;68.68;;;31.80;;
51270;SDS011;37744;50.960;4.136;2023-02-15T05:54:44;77.55;;;33.92;;
51270;SDS011;37744;50.960;4.136;2023-02-15T05:57:10;75.22;;;34.05;;
51270;SDS011;37744;50.960;4.136;2023-02-15T05:59:35;76.32;;;34.25;;
51270;SDS011;37744;50.960;4.136;2023-02-15T06:02:00;74.57;;;35.95;;
51270;SDS011;37744;50.960;4.136;2023-02-15T06:04:26;78.18;;;33.78;;
51270;SDS011;37744;50.960;4.136;2023-02-15T06:06:51;76.45;;;33.38;;
51270;SDS011;37744;50.960;4.136;2023-02-15T06:09:16;79.38;;;36.72;;
51270;SDS011;37744;50.960;4.136;2023-02-15T06:11:43;71.30;;;33.95;;
51270;SDS011;37744;50.960;4.136;2023-02-15T06:14:09;74.03;;;34.38;;
51270;SDS011;37744;50.960;4.136;2023-02-15T06:16:34;79.47;;;35.95;;
51270;SDS011;37744;50.960;4.136;2023-02-15T06:18:59;79.63;;;36.42;;
51270;SDS011;37744;50.960;4.136;2023-02-15T06:21:26;78.53;;;35.35;;
51270;SDS011;37744;50.960;4.136;2023-02-15T06:23:51;79.82;;;35.08;;
51270;SDS011;37744;50.960;4.136;2023-02-15T06:26:17;81.25;;;36.72;;
51270;SDS011;37744;50.960;4.136;2023-02-15T06:28:42;74.40;;;34.70;;
51270;SDS011;37744;50.960;4.136;2023-02-15T06:31:07;76.03;;;33.90;;
51270;SDS011;37744;50.960;4.136;2023-02-15T06:33:33;82.82;;;36.60;;
51270;SDS011;37744;50.960;4.136;2023-02-15T06:35:59;84.15;;;35.95;;
51270;SDS011;37744;50.960;4.136;2023-02-15T06:38:24;75.32;;;34.17;;
51270;SDS011;37744;50.960;4.136;2023-02-15T06:40:49;77.00;;;34.30;;
51270;SDS011;37744;50.960;4.136;2023-02-15T06:43:15;72.97;;;34.42;;
51270;SDS011;37744;50.960;4.136;2023-02-15T06:45:40;74.72;;;34.72;;
51270;SDS011;37744;50.960;4.136;2023-02-15T06:48:06;72.28;;;33.90;;
51270;SDS011;37744;50.960;4.136;2023-02-15T06:50:33;75.45;;;33.90;;
51270;SDS011;37744;50.960;4.136;2023-02-15T06:52:58;73.95;;;34.50;;
51270;SDS011;37744;50.960;4.136;2023-02-15T06:55:24;69.88;;;33.30;;
51270;SDS011;37744;50.960;4.136;2023-02-15T06:57:49;81.18;;;36.00;;
51270;SDS011;37744;50.960;4.136;2023-02-15T07:00:15;75.72;;;35.22;;
51270;SDS011;37744;50.960;4.136;2023-02-15T07:02:40;70.82;;;33.15;;
51270;SDS011;37744;50.960;4.136;2023-02-15T07:05:05;78.47;;;34.08;;
51270;SDS011;37744;50.960;4.136;2023-02-15T07:07:31;72.72;;;33.72;;
51270;SDS011;37744;50.960;4.136;2023-02-15T07:09:56;82.93;;;34.88;;
51270;SDS011;37744;50.960;4.136;2023-02-15T07:12:21;76.32;;;33.35;;
51270;SDS011;37744;50.960;4.136;2023-02-15T07:15:05;72.97;;;33.40;;
51270;SDS011;37744;50.960;4.136;2023-02-15T07:17:32;73.70;;;32.55;;
51270;SDS011;37744;50.960;4.136;2023-02-15T07:19:58;77.30;;;33.67;;
51270;SDS011;37744;50.960;4.136;2023-02-15T07:22:23;71.53;;;33.15;;
51270;SDS011;37744;50.960;4.136;2023-02-15T07:24:48;74.03;;;33.40;;
51270;SDS011;37744;50.960;4.136;2023-02-15T07:27:14;71.85;;;32.70;;
51270;SDS011;37744;50.960;4.136;2023-02-15T07:29:39;71.35;;;33.03;;
51270;SDS011;37744;50.960;4.136;2023-02-15T07:32:04;71.20;;;32.83;;
51270;SDS011;37744;50.960;4.136;2023-02-15T07:34:30;76.13;;;33.17;;
51270;SDS011;37744;50.960;4.136;2023-02-15T07:36:55;67.93;;;31.55;;
51270;SDS011;37744;50.960;4.136;2023-02-15T07:39:21;76.28;;;32.63;;
51270;SDS011;37744;50.960;4.136;2023-02-15T07:41:46;66.18;;;30.95;;
51270;SDS011;37744;50.960;4.136;2023-02-15T07:44:12;71.65;;;33.70;;
51270;SDS011;37744;50.960;4.136;2023-02-15T07:46:38;76.60;;;33.90;;
51270;SDS011;37744;50.960;4.136;2023-02-15T07:49:03;72.22;;;34.65;;
51270;SDS011;37744;50.960;4.136;2023-02-15T07:51:29;72.10;;;33.10;;
51270;SDS011;37744;50.960;4.136;2023-02-15T07:53:54;72.63;;;33.13;;
51270;SDS011;37744;50.960;4.136;2023-02-15T07:56:20;79.45;;;35.30;;
51270;SDS011;37744;50.960;4.136;2023-02-15T07:58:45;86.70;;;39.10;;
51270;SDS011;37744;50.960;4.136;2023-02-15T08:01:17;76.43;;;36.83;;
51270;SDS011;37744;50.960;4.136;2023-02-15T08:03:43;83.45;;;40.28;;
51270;SDS011;37744;50.960;4.136;2023-02-15T08:06:08;73.15;;;34.17;;
51270;SDS011;37744;50.960;4.136;2023-02-15T08:08:34;73.40;;;32.88;;
51270;SDS011;37744;50.960;4.136;2023-02-15T08:11:06;70.65;;;32.55;;
51270;SDS011;37744;50.960;4.136;2023-02-15T08:13:51;73.82;;;34.20;;
51270;SDS011;37744;50.960;4.136;2023-02-15T08:16:27;62.92;;;31.65;;
51270;SDS011;37744;50.960;4.136;2023-02-15T08:18:52;76.05;;;31.95;;
51270;SDS011;37744;50.960;4.136;2023-02-15T08:21:19;72.28;;;32.38;;
51270;SDS011;37744;50.960;4.136;2023-02-15T08:23:44;66.72;;;31.13;;
51270;SDS011;37744;50.960;4.136;2023-02-15T08:26:09;72.32;;;31.80;;
51270;SDS011;37744;50.960;4.136;2023-02-15T08:28:34;71.85;;;32.50;;
51270;SDS011;37744;50.960;4.136;2023-02-15T08:31:10;67.03;;;32.00;;
51270;SDS011;37744;50.960;4.136;2023-02-15T08:33:35;61.45;;;31.60;;
51270;SDS011;37744;50.960;4.136;2023-02-15T08:36:05;62.50;;;31.02;;
51270;SDS011;37744;50.960;4.136;2023-02-15T08:38:31;65.82;;;31.92;;
51270;SDS011;37744;50.960;4.136;2023-02-15T08:40:56;67.43;;;31.42;;
51270;SDS011;37744;50.960;4.136;2023-02-15T08:43:22;64.72;;;30.58;;
51270;SDS011;37744;50.960;4.136;2023-02-15T08:45:47;64.70;;;31.02;;
51270;SDS011;37744;50.960;4.136;2023-02-15T08:48:12;67.80;;;31.75;;
51270;SDS011;37744;50.960;4.136;2023-02-15T08:50:38;67.78;;;31.95;;
51270;SDS011;37744;50.960;4.136;2023-02-15T08:53:03;69.10;;;33.17;;
51270;SDS011;37744;50.960;4.136;2023-02-15T08:55:28;65.47;;;30.27;;
51270;SDS011;37744;50.960;4.136;2023-02-15T08:57:54;60.30;;;29.25;;
51270;SDS011;37744;50.960;4.136;2023-02-15T09:00:20;65.55;;;30.33;;
51270;SDS011;37744;50.960;4.136;2023-02-15T09:02:47;62.38;;;30.17;;
51270;SDS011;37744;50.960;4.136;2023-02-15T09:05:12;66.60;;;29.42;;
51270;SDS011;37744;50.960;4.136;2023-02-15T09:07:38;65.50;;;29.42;;
51270;SDS011;37744;50.960;4.136;2023-02-15T09:10:04;58.08;;;28.40;;
51270;SDS011;37744;50.960;4.136;2023-02-15T09:12:29;60.22;;;29.30;;
51270;SDS011;37744;50.960;4.136;2023-02-15T09:14:54;66.10;;;29.13;;
51270;SDS011;37744;50.960;4.136;2023-02-15T09:17:20;55.47;;;27.42;;
51270;SDS011;37744;50.960;4.136;2023-02-15T09:19:45;55.10;;;27.15;;
51270;SDS011;37744;50.960;4.136;2023-02-15T09:22:10;53.28;;;27.30;;
51270;SDS011;37744;50.960;4.136;2023-02-15T09:24:35;52.08;;;26.48;;
51270;SDS011;37744;50.960;4.136;2023-02-15T09:27:01;54.05;;;26.42;;
51270;SDS011;37744;50.960;4.136;2023-02-15T09:29:26;59.05;;;27.70;;
51270;SDS011;37744;50.960;4.136;2023-02-15T09:31:51;58.63;;;26.63;;
51270;SDS011;37744;50.960;4.136;2023-02-15T09:34:20;57.60;;;27.38;;
51270;SDS011;37744;50.960;4.136;2023-02-15T09:36:45;56.03;;;27.33;;
51270;SDS011;37744;50.960;4.136;2023-02-15T09:39:21;57.58;;;27.20;;
51270;SDS011;37744;50.960;4.136;2023-02-15T09:44:21;57.13;;;26.38;;
51270;SDS011;37744;50.960;4.136;2023-02-15T10:02:54;46.75;;;25.52;;
51270;SDS011;37744;50.960;4.136;2023-02-15T10:05:28;55.95;;;25.58;;
51270;SDS011;37744;50.960;4.136;2023-02-15T10:15:52;53.35;;;25.88;;
51270;SDS011;37744;50.960;4.136;2023-02-15T10:20:57;53.75;;;26.23;;
51270;SDS011;37744;50.960;4.136;2023-02-15T10:26:31;53.22;;;25.38;;
51270;SDS011;37744;50.960;4.136;2023-02-15T10:29:34;51.50;;;26.85;;
51270;SDS011;37744;50.960;4.136;2023-02-15T10:31:38;50.00;;;24.77;;
51270;SDS011;37744;50.960;4.136;2023-02-15T10:47:42;56.22;;;27.30;;
51270;SDS011;37744;50.960;4.136;2023-02-15T10:52:39;59.65;;;25.85;;
51270;SDS011;37744;50.960;4.136;2023-02-15T10:55:31;54.90;;;26.30;;
51270;SDS011;37744;50.960;4.136;2023-02-15T11:00:30;48.50;;;25.88;;
51270;SDS011;37744;50.960;4.136;2023-02-15T11:07:52;54.53;;;26.55;;
51270;SDS011;37744;50.960;4.136;2023-02-15T11:10:30;54.03;;;26.50;;
51270;SDS011;37744;50.960;4.136;2023-02-15T11:12:57;52.72;;;26.27;;
51270;SDS011;37744;50.960;4.136;2023-02-15T11:17:53;57.10;;;26.73;;
51270;SDS011;37744;50.960;4.136;2023-02-15T11:23:07;52.25;;;26.77;;
51270;SDS011;37744;50.960;4.136;2023-02-15T11:25:36;50.50;;;27.08;;
51270;SDS011;37744;50.960;4.136;2023-02-15T11:28:03;54.03;;;26.58;;
51270;SDS011;37744;50.960;4.136;2023-02-15T11:30:37;53.35;;;26.20;;
51270;SDS011;37744;50.960;4.136;2023-02-15T11:33:05;55.35;;;27.38;;
51270;SDS011;37744;50.960;4.136;2023-02-15T11:35:53;57.88;;;26.42;;
51270;SDS011;37744;50.960;4.136;2023-02-15T11:38:24;51.78;;;27.20;;
51270;SDS011;37744;50.960;4.136;2023-02-15T11:40:59;55.35;;;28.30;;
51270;SDS011;37744;50.960;4.136;2023-02-15T11:43:28;59.28;;;28.08;;
51270;SDS011;37744;50.960;4.136;2023-02-15T11:45:56;53.33;;;26.40;;
51270;SDS011;37744;50.960;4.136;2023-02-15T11:48:21;53.35;;;27.00;;
51270;SDS011;37744;50.960;4.136;2023-02-15T11:50:47;51.97;;;26.80;;
51270;SDS011;37744;50.960;4.136;2023-02-15T11:53:13;56.97;;;27.42;;
51270;SDS011;37744;50.960;4.136;2023-02-15T11:55:41;55.25;;;27.05;;
51270;SDS011;37744;50.960;4.136;2023-02-15T12:00:52;50.63;;;26.45;;
51270;SDS011;37744;50.960;4.136;2023-02-15T12:03:21;57.85;;;27.80;;
51270;SDS011;37744;50.960;4.136;2023-02-15T12:05:49;54.25;;;27.17;;
51270;SDS011;37744;50.960;4.136;2023-02-15T12:10:44;53.97;;;26.55;;
51270;SDS011;37744;50.960;4.136;2023-02-15T12:13:17;54.55;;;27.42;;
51270;SDS011;37744;50.960;4.136;2023-02-15T12:15:44;57.50;;;27.10;;
51270;SDS011;37744;50.960;4.136;2023-02-15T12:18:20;62.83;;;28.75;;
51270;SDS011;37744;50.960;4.136;2023-02-15T12:20:46;63.75;;;29.83;;
51270;SDS011;37744;50.960;4.136;2023-02-15T12:23:12;51.70;;;26.73;;
51270;SDS011;37744;50.960;4.136;2023-02-15T12:25:41;53.17;;;27.67;;
51270;SDS011;37744;50.960;4.136;2023-02-15T12:28:52;52.28;;;26.35;;
51270;SDS011;37744;50.960;4.136;2023-02-15T12:30:53;52.78;;;25.95;;
51270;SDS011;37744;50.960;4.136;2023-02-15T12:35:47;53.92;;;27.08;;
51270;SDS011;37744;50.960;4.136;2023-02-15T12:38:23;53.35;;;27.10;;
51270;SDS011;37744;50.960;4.136;2023-02-15T12:41:00;56.72;;;26.50;;
51270;SDS011;37744;50.960;4.136;2023-02-15T12:43:36;52.85;;;27.67;;
51270;SDS011;37744;50.960;4.136;2023-02-15T12:48:46;53.50;;;27.25;;
51270;SDS011;37744;50.960;4.136;2023-02-15T12:51:14;55.22;;;27.58;;
51270;SDS011;37744;50.960;4.136;2023-02-15T12:53:40;49.38;;;26.20;;
51270;SDS011;37744;50.960;4.136;2023-02-15T12:56:07;53.53;;;27.17;;
51270;SDS011;37744;50.960;4.136;2023-02-15T12:58:33;48.50;;;26.85;;
51270;SDS011;37744;50.960;4.136;2023-02-15T13:01:15;48.90;;;25.95;;
51270;SDS011;37744;50.960;4.136;2023-02-15T13:04:14;48.78;;;25.95;;
51270;SDS011;37744;50.960;4.136;2023-02-15T13:06:33;50.60;;;26.52;;
51270;SDS011;37744;50.960;4.136;2023-02-15T13:09:14;53.50;;;27.50;;
51270;SDS011;37744;50.960;4.136;2023-02-15T13:11:40;52.80;;;26.73;;
51270;SDS011;37744;50.960;4.136;2023-02-15T13:14:16;58.00;;;27.73;;
51270;SDS011;37744;50.960;4.136;2023-02-15T13:16:42;52.08;;;26.95;;
51270;SDS011;37744;50.960;4.136;2023-02-15T13:19:12;47.83;;;26.08;;
51270;SDS011;37744;50.960;4.136;2023-02-15T13:21:40;55.50;;;28.33;;
51270;SDS011;37744;50.960;4.136;2023-02-15T13:24:10;51.45;;;26.70;;
51270;SDS011;37744;50.960;4.136;2023-02-15T13:26:40;52.60;;;25.67;;
51270;SDS011;37744;50.960;4.136;2023-02-15T13:29:12;56.15;;;26.67;;
51270;SDS011;37744;50.960;4.136;2023-02-15T13:31:40;49.10;;;26.23;;
51270;SDS011;37744;50.960;4.136;2023-02-15T13:34:10;49.95;;;26.05;;
51270;SDS011;37744;50.960;4.136;2023-02-15T13:41:56;47.70;;;25.15;;
51270;SDS011;37744;50.960;4.136;2023-02-15T13:44:37;51.75;;;25.15;;
51270;SDS011;37744;50.960;4.136;2023-02-15T13:47:09;47.63;;;25.00;;
51270;SDS011;37744;50.960;4.136;2023-02-15T13:52:19;45.80;;;24.60;;
51270;SDS011;37744;50.960;4.136;2023-02-15T13:54:53;46.85;;;24.17;;
51270;SDS011;37744;50.960;4.136;2023-02-15T14:07:05;52.25;;;25.95;;
51270;SDS011;37744;50.960;4.136;2023-02-15T14:12:23;48.80;;;25.58;;
51270;SDS011;37744;50.960;4.136;2023-02-15T14:19:54;50.20;;;25.58;;
51270;SDS011;37744;50.960;4.136;2023-02-15T14:22:30;52.20;;;25.25;;
51270;SDS011;37744;50.960;4.136;2023-02-15T14:29:57;49.40;;;25.05;;
51270;SDS011;37744;50.960;4.136;2023-02-15T14:32:29;47.22;;;25.27;;
51270;SDS011;37744;50.960;4.136;2023-02-15T14:38:10;46.25;;;24.50;;
51270;SDS011;37744;50.960;4.136;2023-02-15T14:45:39;43.72;;;23.83;;
51270;SDS011;37744;50.960;4.136;2023-02-15T14:53:22;50.53;;;25.10;;
51270;SDS011;37744;50.960;4.136;2023-02-15T14:58:30;48.13;;;26.73;;
51270;SDS011;37744;50.960;4.136;2023-02-15T15:00:57;49.53;;;26.33;;
51270;SDS011;37744;50.960;4.136;2023-02-15T15:03:30;46.97;;;25.23;;
51270;SDS011;37744;50.960;4.136;2023-02-15T15:05:56;45.60;;;25.38;;
51270;SDS011;37744;50.960;4.136;2023-02-15T15:08:25;50.15;;;25.50;;
51270;SDS011;37744;50.960;4.136;2023-02-15T15:10:51;47.05;;;25.45;;
51270;SDS011;37744;50.960;4.136;2023-02-15T15:13:35;43.65;;;25.08;;
51270;SDS011;37744;50.960;4.136;2023-02-15T15:18:47;48.70;;;25.48;;
51270;SDS011;37744;50.960;4.136;2023-02-15T15:23:57;50.05;;;25.95;;
51270;SDS011;37744;50.960;4.136;2023-02-15T15:26:31;46.42;;;25.08;;
51270;SDS011;37744;50.960;4.136;2023-02-15T15:29:05;47.78;;;24.05;;
51270;SDS011;37744;50.960;4.136;2023-02-15T15:41:41;51.97;;;25.15;;
51270;SDS011;37744;50.960;4.136;2023-02-15T15:49:23;46.17;;;24.65;;
51270;SDS011;37744;50.960;4.136;2023-02-15T15:51:49;49.08;;;24.83;;
51270;SDS011;37744;50.960;4.136;2023-02-15T15:54:15;47.05;;;25.63;;
51270;SDS011;37744;50.960;4.136;2023-02-15T15:56:41;50.85;;;25.33;;
51270;SDS011;37744;50.960;4.136;2023-02-15T15:59:11;51.33;;;25.33;;
51270;SDS011;37744;50.960;4.136;2023-02-15T16:01:41;55.72;;;26.35;;
51270;SDS011;37744;50.960;4.136;2023-02-15T16:04:10;52.25;;;26.15;;
51270;SDS011;37744;50.960;4.136;2023-02-15T16:06:37;52.75;;;25.73;;
51270;SDS011;37744;50.960;4.136;2023-02-15T16:11:40;49.20;;;25.15;;
51270;SDS011;37744;50.960;4.136;2023-02-15T16:14:13;52.60;;;26.40;;
51270;SDS011;37744;50.960;4.136;2023-02-15T16:19:05;54.97;;;26.65;;
51270;SDS011;37744;50.960;4.136;2023-02-15T16:21:34;52.45;;;26.33;;
51270;SDS011;37744;50.960;4.136;2023-02-15T16:26:46;59.03;;;27.83;;
51270;SDS011;37744;50.960;4.136;2023-02-15T16:29:14;51.55;;;27.00;;
51270;SDS011;37744;50.960;4.136;2023-02-15T16:31:40;57.78;;;27.70;;
51270;SDS011;37744;50.960;4.136;2023-02-15T16:34:08;60.05;;;27.92;;
51270;SDS011;37744;50.960;4.136;2023-02-15T16:36:34;55.90;;;28.40;;
51270;SDS011;37744;50.960;4.136;2023-02-15T16:39:06;54.50;;;27.40;;
51270;SDS011;37744;50.960;4.136;2023-02-15T16:41:31;58.80;;;28.10;;
51270;SDS011;37744;50.960;4.136;2023-02-15T16:43:58;59.58;;;28.15;;
51270;SDS011;37744;50.960;4.136;2023-02-15T16:46:31;50.95;;;27.20;;
51270;SDS011;37744;50.960;4.136;2023-02-15T16:48:59;55.72;;;28.83;;
51270;SDS011;37744;50.960;4.136;2023-02-15T16:51:27;56.10;;;28.75;;
51270;SDS011;37744;50.960;4.136;2023-02-15T16:53:54;58.53;;;28.75;;
51270;SDS011;37744;50.960;4.136;2023-02-15T16:56:26;57.53;;;29.30;;
51270;SDS011;37744;50.960;4.136;2023-02-15T16:58:53;56.78;;;28.38;;
51270;SDS011;37744;50.960;4.136;2023-02-15T17:01:20;56.83;;;29.75;;
51270;SDS011;37744;50.960;4.136;2023-02-15T17:03:45;55.50;;;28.70;;
51270;SDS011;37744;50.960;4.136;2023-02-15T17:06:23;56.17;;;28.92;;
51270;SDS011;37744;50.960;4.136;2023-02-15T17:08:50;61.28;;;29.55;;
51270;SDS011;37744;50.960;4.136;2023-02-15T17:11:17;64.85;;;32.72;;
51270;SDS011;37744;50.960;4.136;2023-02-15T17:16:27;70.95;;;34.78;;
51270;SDS011;37744;50.960;4.136;2023-02-15T17:18:54;64.15;;;29.45;;
51270;SDS011;37744;50.960;4.136;2023-02-15T17:21:32;66.38;;;33.80;;
51270;SDS011;37744;50.960;4.136;2023-02-15T17:24:00;67.28;;;35.03;;
51270;SDS011;37744;50.960;4.136;2023-02-15T17:26:37;59.85;;;31.90;;
51270;SDS011;37744;50.960;4.136;2023-02-15T17:31:54;61.95;;;30.50;;
51270;SDS011;37744;50.960;4.136;2023-02-15T17:37:09;61.80;;;31.65;;